Time;durP1;ratioP1;P1;durP2;ratioP2;P2;SDS_P1;SDS_P2;PMS_P1;PMS_P2;Temp;Humidity;BMP_temperature;BMP_pressure;BME280_temperature;BME280_humidity;BME280_pressure;Samples;Min_cycle;Max_cycle;Signal;HPM_P1;HPM_P2
2023/03/24 00:01:20;;;;;;;;;;;20.00;81.40;;;;;;5116935;28;19912;-53
2023/03/24 00:03:50;;;;;;;;;;;19.90;81.50;;;;;;5117827;28;19911;-55
2023/03/24 00:06:17;;;;;;;;;;;19.80;81.60;;;;;;5117809;28;19908;-53
2023/03/24 00:08:46;;;;;;;;;;;19.80;81.80;;;;;;5117574;28;19915;-55
2023/03/24 00:11:13;;;;;;;;;;;19.70;81.90;;;;;;5115662;28;19912;-51
2023/03/24 00:13:39;;;;;;;;;;;19.60;82.10;;;;;;5117077;28;19951;-54
2023/03/24 00:16:05;;;;;;;;;;;19.60;82.20;;;;;;5117523;28;19957;-52
2023/03/24 00:18:31;;;;;;;;;;;19.60;82.30;;;;;;5116755;28;19912;-54
2023/03/24 00:20:59;;;;;;;;;;;19.50;82.50;;;;;;5116748;28;20421;-50
2023/03/24 00:23:25;;;;;;;;;;;19.40;82.50;;;;;;5117425;28;19908;-51
2023/03/24 00:26:04;;;;;;;;;;;19.40;82.70;;;;;;5117082;28;19908;-53
2023/03/24 00:28:32;;;;;;;;;;;19.40;82.80;;;;;;5116445;28;19916;-55
2023/03/24 00:30:58;;;;;;;;;;;19.30;82.90;;;;;;5117329;28;19912;-52
2023/03/24 00:33:24;;;;;;;;;;;19.30;82.90;;;;;;5116998;28;20404;-54
2023/03/24 00:35:49;;;;;;;;;;;19.40;82.90;;;;;;5117197;28;19912;-53
2023/03/24 00:38:15;;;;;;;;;;;19.40;82.90;;;;;;5116874;28;20251;-54
2023/03/24 00:40:44;;;;;;;;;;;19.40;82.70;;;;;;5114770;28;19926;-51
2023/03/24 00:43:12;;;;;;;;;;;19.50;82.50;;;;;;5117060;28;19919;-50
2023/03/24 00:45:44;;;;;;;;;;;19.60;82.50;;;;;;5116914;28;19918;-54
2023/03/24 00:48:10;;;;;;;;;;;19.60;82.40;;;;;;5116615;28;19907;-54
2023/03/24 00:50:36;;;;;;;;;;;19.50;82.40;;;;;;5116012;28;19919;-51
2023/03/24 00:53:01;;;;;;;;;;;19.60;82.40;;;;;;5116063;28;20022;-53
2023/03/24 00:55:27;;;;;;;;;;;19.50;82.40;;;;;;5116877;28;19916;-51
2023/03/24 00:57:52;;;;;;;;;;;19.50;82.60;;;;;;5116859;28;19915;-53
2023/03/24 01:00:20;;;;;;;;;;;19.50;82.70;;;;;;5115617;28;19912;-52
2023/03/24 01:02:46;;;;;;;;;;;19.40;82.70;;;;;;5116056;28;19911;-54
2023/03/24 01:05:13;;;;;;;;;;;19.40;82.80;;;;;;5115669;28;20290;-54
2023/03/24 01:07:41;;;;;;;;;;;19.30;82.80;;;;;;5116546;28;19911;-51
2023/03/24 01:10:16;;;;;;;;;;;19.30;83.00;;;;;;5114312;28;20394;-53
2023/03/24 01:12:41;;;;;;;;;;;19.30;83.00;;;;;;5116292;28;19911;-53
2023/03/24 01:15:12;;;;;;;;;;;19.30;83.10;;;;;;5116426;28;19929;-54
2023/03/24 01:17:37;;;;;;;;;;;19.20;83.20;;;;;;5114767;28;19912;-54
2023/03/24 01:20:07;;;;;;;;;;;19.20;83.30;;;;;;5116080;28;19908;-53
2023/03/24 01:22:36;;;;;;;;;;;19.20;83.40;;;;;;5116594;28;19907;-51
2023/03/24 01:25:05;;;;;;;;;;;19.10;83.40;;;;;;5116636;28;19914;-52
2023/03/24 01:27:31;;;;;;;;;;;19.10;83.50;;;;;;5116164;28;19908;-52
2023/03/24 01:29:58;;;;;;;;;;;19.10;83.50;;;;;;5115132;28;20259;-53
2023/03/24 01:32:23;;;;;;;;;;;19.20;83.40;;;;;;5115982;28;19907;-51
2023/03/24 01:34:49;;;;;;;;;;;19.20;83.20;;;;;;5113692;28;19916;-52
2023/03/24 01:37:14;;;;;;;;;;;19.30;83.10;;;;;;5115572;28;19948;-53
2023/03/24 01:39:40;;;;;;;;;;;19.30;83.00;;;;;;5116241;28;19955;-52
2023/03/24 01:42:05;;;;;;;;;;;19.40;82.80;;;;;;5115391;28;20003;-54
2023/03/24 01:44:35;;;;;;;;;;;19.50;82.60;;;;;;5114437;28;19912;-53
2023/03/24 01:47:02;;;;;;;;;;;19.50;82.40;;;;;;5115835;28;19908;-51
2023/03/24 01:49:31;;;;;;;;;;;19.50;82.30;;;;;;5115492;28;20374;-53
2023/03/24 01:51:59;;;;;;;;;;;19.60;82.40;;;;;;5115642;28;20041;-51
2023/03/24 01:54:31;;;;;;;;;;;19.50;82.30;;;;;;5114873;28;19922;-52
2023/03/24 01:57:00;;;;;;;;;;;19.60;82.40;;;;;;5115329;28;20310;-54
2023/03/24 01:59:27;;;;;;;;;;;19.50;82.30;;;;;;5115552;28;19908;-52
2023/03/24 02:02:01;;;;;;;;;;;19.60;82.40;;;;;;5115560;28;19912;-53
2023/03/24 02:04:28;;;;;;;;;;;19.50;82.30;;;;;;5114416;28;19919;-51
2023/03/24 02:06:53;;;;;;;;;;;19.60;82.20;;;;;;5115438;28;19915;-52
2023/03/24 02:09:19;;;;;;;;;;;19.60;82.20;;;;;;5115125;28;19908;-52
2023/03/24 02:11:45;;;;;;;;;;;19.60;82.10;;;;;;5115456;28;19908;-54
2023/03/24 02:14:11;;;;;;;;;;;19.60;82.20;;;;;;5115156;28;20006;-53
2023/03/24 02:16:49;;;;;;;;;;;19.60;82.20;;;;;;5113770;28;19923;-53
2023/03/24 02:19:25;;;;;;;;;;;19.50;82.70;;;;;;5114202;28;19912;-53
2023/03/24 02:21:57;;;;;;;;;;;19.50;82.30;;;;;;5114748;28;19998;-54
2023/03/24 02:24:28;;;;;;;;;;;19.50;82.50;;;;;;5114589;28;19908;-53
2023/03/24 02:26:56;;;;;;;;;;;19.40;82.60;;;;;;5113617;28;20386;-51
2023/03/24 02:29:40;;;;;;;;;;;19.30;82.70;;;;;;5114604;28;19912;-54
2023/03/24 02:32:06;;;;;;;;;;;19.30;82.90;;;;;;5114959;28;20008;-53
2023/03/24 02:34:34;;;;;;;;;;;19.20;83.10;;;;;;5114654;28;20393;-51
2023/03/24 02:37:03;;;;;;;;;;;19.20;83.20;;;;;;5112899;28;19911;-54
2023/03/24 02:39:28;;;;;;;;;;;19.10;83.30;;;;;;5114925;28;19990;-53
2023/03/24 02:41:59;;;;;;;;;;;19.10;83.40;;;;;;5113821;28;20007;-53
2023/03/24 02:44:28;;;;;;;;;;;19.10;83.50;;;;;;5114620;28;20334;-52
2023/03/24 02:47:00;;;;;;;;;;;19.00;83.60;;;;;;5114749;28;19914;-54
2023/03/24 02:49:35;;;;;;;;;;;19.00;83.60;;;;;;5114814;28;19907;-53
2023/03/24 02:52:12;;;;;;;;;;;19.00;83.70;;;;;;5113492;28;19919;-52
2023/03/24 02:54:41;;;;;;;;;;;18.90;83.80;;;;;;5114772;28;19919;-50
2023/03/24 02:57:06;;;;;;;;;;;18.90;83.80;;;;;;5114656;28;19922;-53
2023/03/24 02:59:48;;;;;;;;;;;18.90;83.90;;;;;;5114598;28;19908;-52
2023/03/24 03:02:25;;;;;;;;;;;18.90;84.00;;;;;;5112201;28;20338;-52
2023/03/24 03:05:04;;;;;;;;;;;18.80;84.00;;;;;;5109801;28;19919;-54
2023/03/24 03:07:32;;;;;;;;;;;18.80;84.00;;;;;;5110946;28;19916;-52
2023/03/24 03:10:12;;;;;;;;;;;18.80;84.10;;;;;;5114572;28;20018;-54
2023/03/24 03:12:39;;;;;;;;;;;18.80;84.20;;;;;;5112973;28;19920;-54
2023/03/24 03:15:12;;;;;;;;;;;18.80;84.10;;;;;;5114127;28;19912;-53
2023/03/24 03:17:41;;;;;;;;;;;18.80;84.10;;;;;;5114506;28;19918;-53
2023/03/24 03:20:13;;;;;;;;;;;18.70;84.10;;;;;;5114172;28;19998;-54
2023/03/24 03:22:44;;;;;;;;;;;18.80;84.10;;;;;;5113356;28;19912;-54
2023/03/24 03:25:11;;;;;;;;;;;18.70;84.10;;;;;;5114353;28;19930;-52
2023/03/24 03:27:38;;;;;;;;;;;18.70;84.20;;;;;;5114133;28;19908;-54
2023/03/24 03:30:06;;;;;;;;;;;18.70;84.30;;;;;;5114278;28;19961;-52
2023/03/24 03:32:34;;;;;;;;;;;18.70;84.30;;;;;;5113313;28;20022;-53
2023/03/24 03:35:04;;;;;;;;;;;18.70;84.40;;;;;;5116656;28;19973;-54
2023/03/24 03:37:33;;;;;;;;;;;18.70;84.40;;;;;;5118081;28;19908;-54
2023/03/24 03:40:05;;;;;;;;;;;18.70;84.50;;;;;;5118364;28;19912;-54
2023/03/24 03:42:31;;;;;;;;;;;18.60;84.50;;;;;;5116774;28;19980;-54
2023/03/24 03:44:56;;;;;;;;;;;18.60;84.50;;;;;;5118029;28;19908;-55
2023/03/24 03:47:22;;;;;;;;;;;18.60;84.50;;;;;;5118169;28;19908;-54
2023/03/24 03:49:48;;;;;;;;;;;18.60;84.60;;;;;;5118073;28;20002;-54
2023/03/24 03:52:14;;;;;;;;;;;18.60;84.60;;;;;;5117984;28;19908;-54
2023/03/24 03:54:41;;;;;;;;;;;18.60;84.60;;;;;;5116758;28;20379;-53
2023/03/24 03:57:07;;;;;;;;;;;18.50;84.60;;;;;;5118016;28;19953;-53
2023/03/24 03:59:34;;;;;;;;;;;18.50;84.60;;;;;;5117973;28;19908;-53
2023/03/24 04:02:04;;;;;;;;;;;18.50;84.70;;;;;;5099630;28;19999;-53
2023/03/24 04:04:32;;;;;;;;;;;18.50;84.80;;;;;;5116992;28;19954;-53
2023/03/24 04:07:16;;;;;;;;;;;18.50;84.80;;;;;;5117719;28;20010;-51
2023/03/24 04:10:04;;;;;;;;;;;18.50;84.80;;;;;;5118063;28;19908;-54
2023/03/24 04:12:48;;;;;;;;;;;18.50;84.80;;;;;;5098304;28;19911;-52
2023/03/24 04:15:16;;;;;;;;;;;18.50;84.80;;;;;;5117556;28;19912;-53
2023/03/24 04:17:59;;;;;;;;;;;18.50;84.80;;;;;;5117583;28;19908;-53
2023/03/24 04:20:31;;;;;;;;;;;18.50;84.90;;;;;;5117567;28;19908;-52
2023/03/24 04:23:13;;;;;;;;;;;18.50;84.90;;;;;;5116618;28;19911;-51
2023/03/24 04:25:57;;;;;;;;;;;18.50;85.00;;;;;;5117343;28;19922;-53
2023/03/24 04:28:46;;;;;;;;;;;18.50;85.00;;;;;;5117409;28;19908;-52
2023/03/24 04:31:17;;;;;;;;;;;18.40;84.90;;;;;;5070189;28;20011;-53
2023/03/24 04:33:49;;;;;;;;;;;18.40;85.00;;;;;;5116319;28;19962;-55
2023/03/24 04:36:21;;;;;;;;;;;18.40;85.00;;;;;;5117035;28;20014;-51
2023/03/24 04:38:49;;;;;;;;;;;18.40;85.00;;;;;;5117100;28;19916;-53
2023/03/24 04:41:16;;;;;;;;;;;18.40;85.00;;;;;;5117043;28;20010;-53
2023/03/24 04:43:43;;;;;;;;;;;18.40;85.10;;;;;;5116169;28;19912;-52
2023/03/24 04:46:10;;;;;;;;;;;18.40;85.10;;;;;;5115279;28;20198;-53
2023/03/24 04:48:36;;;;;;;;;;;18.30;85.10;;;;;;5116687;28;19966;-52
2023/03/24 04:51:02;;;;;;;;;;;18.30;85.10;;;;;;5116918;28;19916;-54
2023/03/24 04:53:28;;;;;;;;;;;18.30;85.20;;;;;;5115540;28;20361;-52
2023/03/24 04:56:03;;;;;;;;;;;18.30;85.20;;;;;;5116926;28;19938;-54
2023/03/24 04:58:29;;;;;;;;;;;18.30;85.20;;;;;;5116648;28;19908;-54
2023/03/24 05:00:55;;;;;;;;;;;18.30;85.20;;;;;;5116827;28;19914;-53
2023/03/24 05:03:20;;;;;;;;;;;18.30;85.20;;;;;;5115358;28;20006;-53
2023/03/24 05:05:47;;;;;;;;;;;18.30;85.30;;;;;;5116561;28;19915;-53
2023/03/24 05:08:13;;;;;;;;;;;18.30;85.30;;;;;;5116223;28;20274;-53
2023/03/24 05:10:38;;;;;;;;;;;18.30;85.30;;;;;;5115608;28;19994;-54
2023/03/24 05:13:05;;;;;;;;;;;18.30;85.30;;;;;;5115596;28;20006;-52
2023/03/24 05:15:30;;;;;;;;;;;18.30;85.40;;;;;;5116408;28;19912;-55
2023/03/24 05:17:56;;;;;;;;;;;18.20;85.40;;;;;;5116117;28;19908;-54
2023/03/24 05:20:22;;;;;;;;;;;18.20;85.30;;;;;;5097945;28;19945;-54
2023/03/24 05:22:48;;;;;;;;;;;18.20;85.40;;;;;;5115281;28;19918;-53
2023/03/24 05:25:14;;;;;;;;;;;18.20;85.40;;;;;;5116182;28;19912;-50
2023/03/24 05:27:40;;;;;;;;;;;18.20;85.40;;;;;;5116155;28;20011;-54
2023/03/24 05:30:06;;;;;;;;;;;18.20;85.50;;;;;;5116470;28;19943;-52
2023/03/24 05:32:31;;;;;;;;;;;18.20;85.50;;;;;;5114739;28;20266;-53
2023/03/24 05:34:57;;;;;;;;;;;18.20;85.50;;;;;;5116125;28;19965;-53
2023/03/24 05:37:22;;;;;;;;;;;18.20;85.50;;;;;;5115937;28;19908;-54
2023/03/24 05:39:48;;;;;;;;;;;18.20;85.60;;;;;;5115610;28;20397;-53
2023/03/24 05:42:14;;;;;;;;;;;18.10;85.50;;;;;;5114923;28;19972;-52
2023/03/24 05:44:39;;;;;;;;;;;18.20;85.60;;;;;;5115372;28;19912;-53
2023/03/24 05:47:05;;;;;;;;;;;18.20;85.50;;;;;;5097557;28;19908;-53
2023/03/24 05:49:31;;;;;;;;;;;18.20;85.60;;;;;;5115729;28;19914;-52
2023/03/24 05:51:56;;;;;;;;;;;18.10;85.50;;;;;;5097392;28;20006;-53
2023/03/24 05:54:22;;;;;;;;;;;18.20;85.60;;;;;;5114078;28;19922;-54
2023/03/24 05:56:48;;;;;;;;;;;18.20;85.70;;;;;;5114953;28;19922;-55
2023/03/24 05:59:14;;;;;;;;;;;18.20;85.70;;;;;;5115071;28;19962;-53
2023/03/24 06:01:41;;;;;;;;;;;18.10;85.60;;;;;;5115675;28;19907;-53
2023/03/24 06:04:06;;;;;;;;;;;18.10;85.60;;;;;;5114068;28;19933;-54
2023/03/24 06:06:32;;;;;;;;;;;18.10;85.60;;;;;;5115004;28;19912;-52
2023/03/24 06:09:01;;;;;;;;;;;18.10;85.70;;;;;;5115232;28;20002;-54
2023/03/24 06:11:27;;;;;;;;;;;18.10;85.70;;;;;;5113121;28;19915;-54
2023/03/24 06:13:52;;;;;;;;;;;18.10;85.70;;;;;;5114513;28;19916;-54
2023/03/24 06:16:22;;;;;;;;;;;18.10;85.80;;;;;;5115019;28;19912;-54
2023/03/24 06:18:51;;;;;;;;;;;18.10;85.70;;;;;;5115310;28;19912;-54
2023/03/24 06:21:17;;;;;;;;;;;18.10;85.70;;;;;;5113896;28;19907;-53
2023/03/24 06:23:43;;;;;;;;;;;18.10;85.80;;;;;;5096790;28;19970;-54
2023/03/24 06:26:10;;;;;;;;;;;18.10;85.80;;;;;;5114722;28;19960;-55
2023/03/24 06:28:38;;;;;;;;;;;18.10;85.90;;;;;;5114887;28;19907;-54
2023/03/24 06:31:04;;;;;;;;;;;18.00;85.80;;;;;;5114530;28;20017;-52
2023/03/24 06:33:30;;;;;;;;;;;18.10;85.80;;;;;;5113513;28;20015;-55
2023/03/24 06:35:55;;;;;;;;;;;18.10;85.80;;;;;;5114707;28;20002;-53
2023/03/24 06:38:21;;;;;;;;;;;18.10;85.80;;;;;;5114349;28;19908;-52
2023/03/24 06:40:46;;;;;;;;;;;18.00;85.80;;;;;;5114663;28;19924;-53
2023/03/24 06:43:12;;;;;;;;;;;18.00;85.90;;;;;;5113669;28;19918;-53
2023/03/24 06:45:38;;;;;;;;;;;18.00;85.90;;;;;;5114126;28;19912;-53
2023/03/24 06:48:04;;;;;;;;;;;18.00;85.90;;;;;;5114230;28;20358;-54
2023/03/24 06:50:33;;;;;;;;;;;18.00;85.90;;;;;;5114217;28;19907;-52
2023/03/24 06:52:59;;;;;;;;;;;18.00;86.00;;;;;;5113311;28;19938;-54
2023/03/24 06:55:25;;;;;;;;;;;18.00;85.90;;;;;;5114369;28;19911;-55
2023/03/24 06:57:50;;;;;;;;;;;18.00;86.00;;;;;;5114350;28;20338;-54
2023/03/24 07:00:16;;;;;;;;;;;18.00;86.00;;;;;;5113850;28;19960;-54
2023/03/24 07:02:41;;;;;;;;;;;18.00;86.00;;;;;;5113458;28;19920;-55
2023/03/24 07:05:07;;;;;;;;;;;18.00;86.00;;;;;;5114320;28;19999;-52
2023/03/24 07:07:34;;;;;;;;;;;18.00;86.00;;;;;;5114148;28;19911;-53
2023/03/24 07:10:00;;;;;;;;;;;18.00;86.00;;;;;;5113680;28;20021;-54
2023/03/24 07:12:26;;;;;;;;;;;18.00;86.00;;;;;;5112908;28;19912;-49
2023/03/24 07:14:52;;;;;;;;;;;18.00;86.10;;;;;;5114165;28;20318;-55
2023/03/24 07:17:17;;;;;;;;;;;18.00;86.10;;;;;;5113748;28;19912;-53
2023/03/24 07:19:44;;;;;;;;;;;17.90;86.00;;;;;;5113873;28;19908;-52
2023/03/24 07:22:10;;;;;;;;;;;18.00;86.00;;;;;;5094908;28;19918;-54
2023/03/24 07:24:35;;;;;;;;;;;18.00;86.00;;;;;;5113753;28;19908;-51
2023/03/24 07:27:01;;;;;;;;;;;18.00;86.00;;;;;;5113794;28;19915;-53
2023/03/24 07:29:27;;;;;;;;;;;18.00;86.10;;;;;;5113971;28;19911;-53
2023/03/24 07:31:53;;;;;;;;;;;18.00;86.10;;;;;;5113174;28;19991;-53
2023/03/24 07:34:19;;;;;;;;;;;17.90;86.20;;;;;;5113849;28;19974;-55
2023/03/24 07:36:45;;;;;;;;;;;17.90;86.10;;;;;;5114147;28;20255;-54
2023/03/24 07:39:12;;;;;;;;;;;17.90;86.00;;;;;;5095720;28;19908;-54
2023/03/24 07:41:37;;;;;;;;;;;18.00;86.60;;;;;;5113057;28;20016;-54
2023/03/24 07:44:02;;;;;;;;;;;18.00;86.20;;;;;;5114209;28;19912;-53
2023/03/24 07:46:28;;;;;;;;;;;18.00;86.20;;;;;;5114166;28;20336;-54
2023/03/24 07:48:54;;;;;;;;;;;18.00;86.10;;;;;;5095549;28;19927;-54
2023/03/24 07:51:19;;;;;;;;;;;18.00;86.10;;;;;;5113635;28;19908;-54
2023/03/24 07:53:46;;;;;;;;;;;18.00;86.10;;;;;;5112392;28;20366;-55
2023/03/24 07:56:12;;;;;;;;;;;18.00;86.10;;;;;;5113442;28;20386;-53
2023/03/24 07:58:38;;;;;;;;;;;18.00;86.10;;;;;;5113230;28;19911;-55
2023/03/24 08:01:06;;;;;;;;;;;18.00;86.00;;;;;;5113682;28;20370;-54
2023/03/24 08:03:32;;;;;;;;;;;18.10;86.00;;;;;;5112684;28;20278;-54
2023/03/24 08:05:58;;;;;;;;;;;18.10;85.90;;;;;;5113233;28;19919;-52
2023/03/24 08:08:24;;;;;;;;;;;18.20;86.20;;;;;;5113641;28;19943;-53
2023/03/24 08:10:49;;;;;;;;;;;18.40;85.40;;;;;;5111608;28;20372;-54
2023/03/24 08:13:15;;;;;;;;;;;18.50;84.90;;;;;;5113305;28;19924;-54
2023/03/24 08:15:41;;;;;;;;;;;18.70;84.30;;;;;;5112975;28;20265;-53
2023/03/24 08:18:06;;;;;;;;;;;19.00;83.70;;;;;;5113324;28;19908;-53
2023/03/24 08:20:32;;;;;;;;;;;19.20;83.10;;;;;;5112675;28;19998;-55
2023/03/24 08:22:59;;;;;;;;;;;19.40;82.60;;;;;;5117020;28;19912;-54
2023/03/24 08:25:25;;;;;;;;;;;19.60;82.10;;;;;;5099255;28;19908;-50
2023/03/24 08:27:51;;;;;;;;;;;19.70;81.70;;;;;;5117083;28;19953;-55
2023/03/24 08:30:18;;;;;;;;;;;19.80;81.40;;;;;;5116810;28;20259;-56
2023/03/24 08:32:44;;;;;;;;;;;19.90;81.10;;;;;;5116200;28;19916;-55
2023/03/24 08:35:13;;;;;;;;;;;20.00;80.90;;;;;;5116932;28;19941;-53
2023/03/24 08:37:39;;;;;;;;;;;20.00;80.80;;;;;;5117005;28;19915;-54
2023/03/24 08:40:05;;;;;;;;;;;20.10;80.60;;;;;;5116972;28;19951;-55
2023/03/24 08:42:31;;;;;;;;;;;20.10;80.50;;;;;;5115723;28;19962;-53
2023/03/24 08:44:56;;;;;;;;;;;20.20;80.90;;;;;;5117025;28;19908;-55
2023/03/24 08:47:22;;;;;;;;;;;20.30;80.30;;;;;;5117177;28;20315;-54
2023/03/24 08:49:47;;;;;;;;;;;20.30;80.10;;;;;;5116819;28;20265;-55
2023/03/24 08:52:13;;;;;;;;;;;20.30;80.10;;;;;;5115899;28;19912;-55
2023/03/24 08:54:38;;;;;;;;;;;20.20;80.20;;;;;;5114818;28;20401;-53
2023/03/24 08:57:03;;;;;;;;;;;20.10;80.30;;;;;;5116603;28;19958;-55
2023/03/24 08:59:29;;;;;;;;;;;20.10;80.50;;;;;;5116475;28;19952;-54
2023/03/24 09:01:54;;;;;;;;;;;20.00;80.70;;;;;;5116474;28;19914;-55
2023/03/24 09:04:20;;;;;;;;;;;19.90;80.80;;;;;;5115062;28;20002;-55
2023/03/24 09:06:46;;;;;;;;;;;19.80;81.10;;;;;;5116147;28;19919;-54
2023/03/24 09:09:11;;;;;;;;;;;19.80;81.30;;;;;;5116203;28;19908;-54
2023/03/24 09:11:37;;;;;;;;;;;19.70;81.40;;;;;;5116415;28;19918;-56
2023/03/24 09:14:02;;;;;;;;;;;19.70;81.70;;;;;;5116326;28;19911;-56
2023/03/24 09:16:27;;;;;;;;;;;19.60;81.70;;;;;;5115098;28;19915;-54
2023/03/24 09:18:53;;;;;;;;;;;19.60;81.80;;;;;;5116187;28;19908;-55
2023/03/24 09:21:18;;;;;;;;;;;19.60;81.80;;;;;;5116232;28;19998;-57
2023/03/24 09:23:44;;;;;;;;;;;19.70;81.70;;;;;;5097862;28;19911;-51
2023/03/24 09:26:10;;;;;;;;;;;19.70;81.50;;;;;;5115071;28;19911;-55
2023/03/24 09:28:35;;;;;;;;;;;19.80;81.40;;;;;;5116132;28;19914;-55
2023/03/24 09:31:02;;;;;;;;;;;19.90;81.20;;;;;;5115804;28;19908;-52
2023/03/24 09:33:29;;;;;;;;;;;20.00;81.10;;;;;;5115369;28;19916;-55
2023/03/24 09:35:55;;;;;;;;;;;20.00;80.90;;;;;;5114122;28;20039;-51
2023/03/24 09:38:21;;;;;;;;;;;20.00;80.80;;;;;;5115430;28;19998;-55
2023/03/24 09:40:47;;;;;;;;;;;20.00;80.90;;;;;;5115508;28;20020;-53
2023/03/24 09:43:18;;;;;;;;;;;19.90;81.00;;;;;;5115831;28;19908;-56
2023/03/24 09:45:48;;;;;;;;;;;19.90;81.20;;;;;;5114767;28;19908;-56
2023/03/24 09:48:18;;;;;;;;;;;19.80;81.30;;;;;;5095080;28;19951;-55
2023/03/24 09:51:04;;;;;;;;;;;19.70;81.50;;;;;;5095201;28;20010;-53
2023/03/24 09:53:42;;;;;;;;;;;19.60;81.80;;;;;;5094396;28;19911;-54
2023/03/24 09:56:12;;;;;;;;;;;19.60;82.00;;;;;;5094820;28;19917;-53
2023/03/24 09:58:40;;;;;;;;;;;19.50;82.10;;;;;;5115062;28;19919;-56
2023/03/24 10:01:10;;;;;;;;;;;19.50;82.30;;;;;;5115285;28;19915;-55
2023/03/24 10:03:35;;;;;;;;;;;19.50;82.30;;;;;;5115007;28;19953;-54
2023/03/24 10:06:06;;;;;;;;;;;19.50;82.30;;;;;;5114000;28;19915;-54
2023/03/24 10:08:35;;;;;;;;;;;19.50;82.30;;;;;;5115203;28;19935;-53
2023/03/24 10:11:14;;;;;;;;;;;19.60;82.20;;;;;;5115340;28;20274;-55
2023/03/24 10:13:45;;;;;;;;;;;19.60;81.90;;;;;;5115217;28;19911;-55
2023/03/24 10:16:11;;;;;;;;;;;19.80;81.60;;;;;;5114258;28;19916;-53
2023/03/24 10:18:41;;;;;;;;;;;19.90;81.30;;;;;;5114973;28;19929;-53
2023/03/24 10:21:18;;;;;;;;;;;20.00;80.90;;;;;;5115131;28;20377;-56
2023/03/24 10:23:55;;;;;;;;;;;20.10;80.80;;;;;;5115067;28;19915;-53
2023/03/24 10:26:21;;;;;;;;;;;20.10;80.60;;;;;;5114103;28;19919;-55
2023/03/24 10:28:53;;;;;;;;;;;20.20;80.60;;;;;;5114700;28;20278;-53
2023/03/24 10:31:24;;;;;;;;;;;20.20;80.60;;;;;;5114477;28;19908;-51
2023/03/24 10:33:51;;;;;;;;;;;20.10;80.60;;;;;;5114508;28;19980;-54
2023/03/24 10:36:17;;;;;;;;;;;20.10;80.80;;;;;;5113237;28;19999;-54
2023/03/24 10:38:43;;;;;;;;;;;20.10;80.80;;;;;;5114523;28;19915;-56
2023/03/24 10:41:14;;;;;;;;;;;20.00;81.00;;;;;;5114396;28;19919;-55
2023/03/24 10:43:39;;;;;;;;;;;19.90;81.10;;;;;;5112751;28;20389;-53
2023/03/24 10:46:05;;;;;;;;;;;19.90;81.30;;;;;;5114324;28;19908;-53
2023/03/24 10:48:33;;;;;;;;;;;19.80;81.50;;;;;;5114054;28;20355;-54
2023/03/24 10:50:59;;;;;;;;;;;19.80;81.60;;;;;;5114341;28;19951;-52
2023/03/24 10:53:24;;;;;;;;;;;19.70;81.70;;;;;;5113766;28;19947;-56
2023/03/24 10:55:50;;;;;;;;;;;19.70;81.80;;;;;;5114380;28;19942;-55
2023/03/24 10:58:35;;;;;;;;;;;19.70;81.90;;;;;;5114349;28;19912;-55
2023/03/24 11:01:01;;;;;;;;;;;19.70;81.90;;;;;;5113269;28;19915;-56
2023/03/24 11:03:29;;;;;;;;;;;19.70;82.00;;;;;;5112817;28;19911;-53
2023/03/24 11:06:02;;;;;;;;;;;19.70;81.90;;;;;;5114286;28;19908;-54
2023/03/24 11:08:35;;;;;;;;;;;19.70;81.90;;;;;;5114141;28;19911;-53
2023/03/24 11:11:00;;;;;;;;;;;19.80;81.80;;;;;;5114236;28;19908;-56
2023/03/24 11:13:28;;;;;;;;;;;19.80;81.60;;;;;;5113355;28;20339;-55
2023/03/24 11:16:04;;;;;;;;;;;19.90;81.40;;;;;;5113729;28;20239;-53
2023/03/24 11:18:30;;;;;;;;;;;20.00;81.30;;;;;;5114430;28;20371;-55
2023/03/24 11:20:57;;;;;;;;;;;20.00;81.10;;;;;;5114052;28;20004;-54
2023/03/24 11:23:25;;;;;;;;;;;20.00;81.10;;;;;;5113223;28;19911;-51
2023/03/24 11:26:02;;;;;;;;;;;20.00;81.20;;;;;;5113580;28;20282;-53
2023/03/24 11:28:28;;;;;;;;;;;19.90;81.20;;;;;;5114096;28;19912;-53
2023/03/24 11:30:54;;;;;;;;;;;19.90;81.30;;;;;;5114452;28;19959;-51
2023/03/24 11:33:21;;;;;;;;;;;19.80;81.60;;;;;;5113854;28;20388;-53
2023/03/24 11:35:47;;;;;;;;;;;19.80;81.70;;;;;;5111814;28;20336;-52
2023/03/24 11:38:17;;;;;;;;;;;19.70;81.80;;;;;;5113646;28;20366;-54
2023/03/24 11:40:57;;;;;;;;;;;19.60;82.00;;;;;;5095608;28;19919;-54
2023/03/24 11:43:22;;;;;;;;;;;19.60;82.20;;;;;;5114041;28;19908;-50
2023/03/24 11:46:08;;;;;;;;;;;19.60;82.30;;;;;;5112267;28;19992;-54
2023/03/24 11:48:39;;;;;;;;;;;19.60;82.30;;;;;;5112836;28;20328;-52
2023/03/24 11:51:05;;;;;;;;;;;19.60;82.30;;;;;;5113845;28;19954;-52
2023/03/24 11:53:38;;;;;;;;;;;19.60;82.20;;;;;;5095551;28;19919;-55
2023/03/24 11:56:15;;;;;;;;;;;19.70;82.20;;;;;;5115621;28;19915;-53
2023/03/24 11:58:54;;;;;;;;;;;19.80;82.20;;;;;;5117710;28;19908;-56
2023/03/24 12:01:19;;;;;;;;;;;19.80;81.60;;;;;;5117776;28;19915;-54
2023/03/24 12:04:03;;;;;;;;;;;20.00;81.40;;;;;;5116495;28;19912;-55
2023/03/24 12:06:34;;;;;;;;;;;20.10;81.10;;;;;;5117469;28;19912;-55
2023/03/24 12:09:06;;;;;;;;;;;20.10;81.00;;;;;;5117873;28;19908;-55
2023/03/24 12:11:40;;;;;;;;;;;20.20;80.90;;;;;;5117513;28;19933;-53
2023/03/24 12:14:07;;;;;;;;;;;20.10;80.90;;;;;;5116314;28;19915;-54
2023/03/24 12:16:42;;;;;;;;;;;20.10;81.00;;;;;;5117072;28;19994;-52
2023/03/24 12:19:15;;;;;;;;;;;20.00;81.10;;;;;;5117426;28;19919;-54
2023/03/24 12:21:48;;;;;;;;;;;20.00;81.30;;;;;;5117298;28;19908;-55
2023/03/24 12:24:32;;;;;;;;;;;19.90;81.50;;;;;;5115792;28;19950;-53
2023/03/24 12:26:58;;;;;;;;;;;19.80;81.70;;;;;;5116919;28;19935;-54
2023/03/24 12:29:43;;;;;;;;;;;19.80;81.80;;;;;;5116997;28;20256;-53
2023/03/24 12:32:27;;;;;;;;;;;19.70;82.00;;;;;;5116883;28;20320;-56
2023/03/24 12:35:11;;;;;;;;;;;19.70;82.10;;;;;;5115542;28;19920;-55
2023/03/24 12:37:56;;;;;;;;;;;19.70;82.30;;;;;;5116839;28;20366;-54
2023/03/24 12:40:49;;;;;;;;;;;19.60;82.40;;;;;;5115573;28;19973;-52
2023/03/24 12:43:38;;;;;;;;;;;19.60;82.50;;;;;;5116851;28;19912;-51
2023/03/24 12:46:13;;;;;;;;;;;19.50;82.50;;;;;;5097699;28;20343;-51
2023/03/24 12:49:11;;;;;;;;;;;19.60;82.60;;;;;;5116229;28;19914;-53
2023/03/24 12:51:52;;;;;;;;;;;19.70;82.50;;;;;;5060396;28;19918;-55
2023/03/24 12:54:17;;;;;;;;;;;19.80;82.10;;;;;;5115167;28;19912;-50
2023/03/24 12:56:49;;;;;;;;;;;19.90;81.70;;;;;;5116371;28;20223;-52
2023/03/24 12:59:36;;;;;;;;;;;20.00;81.40;;;;;;5116357;28;19908;-54
2023/03/24 13:02:11;;;;;;;;;;;20.20;81.10;;;;;;5116163;28;19914;-53
2023/03/24 13:04:41;;;;;;;;;;;20.30;80.80;;;;;;5116170;28;19912;-53
2023/03/24 13:07:13;;;;;;;;;;;20.30;80.80;;;;;;5115670;28;19915;-52
2023/03/24 13:09:54;;;;;;;;;;;20.30;80.80;;;;;;5116173;28;19911;-52
2023/03/24 13:12:25;;;;;;;;;;;20.20;81.00;;;;;;5116130;28;19914;-54
2023/03/24 13:15:15;;;;;;;;;;;20.10;81.10;;;;;;5115037;28;19912;-55
2023/03/24 13:17:46;;;;;;;;;;;20.00;81.20;;;;;;5098090;28;19916;-53
2023/03/24 13:20:12;;;;;;;;;;;20.00;81.50;;;;;;5115552;28;19908;-54
2023/03/24 13:22:38;;;;;;;;;;;19.90;81.60;;;;;;5115885;28;19954;-56
2023/03/24 13:25:08;;;;;;;;;;;19.80;81.80;;;;;;5115033;28;19946;-55
2023/03/24 13:27:37;;;;;;;;;;;19.80;81.90;;;;;;5115607;28;19912;-54
2023/03/24 13:30:05;;;;;;;;;;;19.70;82.00;;;;;;5115616;28;19908;-53
2023/03/24 13:32:37;;;;;;;;;;;19.70;82.10;;;;;;5115880;28;20251;-55
2023/03/24 13:35:21;;;;;;;;;;;19.60;82.20;;;;;;5115122;28;19942;-54
2023/03/24 13:37:56;;;;;;;;;;;19.60;82.40;;;;;;5116150;28;19912;-53
2023/03/24 13:40:26;;;;;;;;;;;19.60;82.50;;;;;;5115606;28;19961;-55
2023/03/24 13:43:12;;;;;;;;;;;19.60;82.50;;;;;;5115213;28;20282;-54
2023/03/24 13:45:40;;;;;;;;;;;19.60;82.40;;;;;;5113451;28;19916;-53
2023/03/24 13:48:09;;;;;;;;;;;19.70;82.30;;;;;;5115278;28;19914;-54
2023/03/24 13:50:54;;;;;;;;;;;19.80;82.00;;;;;;5115433;28;20358;-54
2023/03/24 13:53:26;;;;;;;;;;;20.00;81.60;;;;;;5115010;28;20251;-55
2023/03/24 13:55:51;;;;;;;;;;;20.10;81.20;;;;;;5114494;28;20393;-54
2023/03/24 13:58:22;;;;;;;;;;;20.20;81.00;;;;;;5115325;28;19915;-52
2023/03/24 14:01:04;;;;;;;;;;;20.20;81.00;;;;;;5114929;28;19907;-55
2023/03/24 14:03:31;;;;;;;;;;;20.10;81.00;;;;;;5113977;28;19919;-55
2023/03/24 14:05:58;;;;;;;;;;;20.10;81.20;;;;;;5114900;28;20355;-55
2023/03/24 14:08:39;;;;;;;;;;;20.00;81.20;;;;;;5115216;28;19968;-51
2023/03/24 14:11:04;;;;;;;;;;;20.00;81.40;;;;;;5114712;28;20346;-51
2023/03/24 14:13:34;;;;;;;;;;;19.90;81.60;;;;;;5114117;28;19916;-53
2023/03/24 14:16:19;;;;;;;;;;;19.90;81.80;;;;;;5114867;28;20381;-52
2023/03/24 14:18:47;;;;;;;;;;;19.80;82.40;;;;;;5114301;28;20351;-54
2023/03/24 14:21:12;;;;;;;;;;;19.70;82.00;;;;;;5114543;28;20383;-54
2023/03/24 14:23:45;;;;;;;;;;;19.70;82.20;;;;;;5113636;28;20012;-53
2023/03/24 14:26:11;;;;;;;;;;;19.60;82.40;;;;;;5114815;28;20429;-54
2023/03/24 14:28:37;;;;;;;;;;;19.60;82.50;;;;;;5114555;28;19951;-54